Air Navigation Services of Czech Republic
Airport: LKPD Updated:  03.12.2021 18:56:28  UTC
 METAR LKPD 03.12. 19:00 ...
METAR LKPD 031900Z 17005KT CAVOK M01/M04 Q1012 NOSIG RMK BLU BLU=
 TAF LKPD 03.12. 17:00 ...
TAF LKPD 031700Z 0318/0418 21008KT CAVOK      BECMG 0400/0402 09004KT      PROB30 TEMPO 0402/0407 VRB02KT 5000 MIFG BR      BECMG 0410/0412 12008KT BKN040      TEMPO 0412/0418 3000 SNRA BKN005 OVC010=